sensor_id;sensor_type;location;lat;lon;timestamp;P1;durP1;ratioP1;P2;durP2;ratioP2
26102;SDS011;69760;49.380;8.998;2024-01-25T00:00:16;22.85;;;3.45;;
26102;SDS011;69760;49.380;8.998;2024-01-25T00:02:42;26.42;;;3.85;;
26102;SDS011;69760;49.380;8.998;2024-01-25T00:05:08;28.52;;;3.67;;
26102;SDS011;69760;49.380;8.998;2024-01-25T00:07:33;18.02;;;2.97;;
26102;SDS011;69760;49.380;8.998;2024-01-25T00:09:59;21.75;;;3.13;;
26102;SDS011;69760;49.380;8.998;2024-01-25T00:12:25;20.42;;;2.90;;
26102;SDS011;69760;49.380;8.998;2024-01-25T00:14:51;21.98;;;3.30;;
26102;SDS011;69760;49.380;8.998;2024-01-25T00:17:17;16.90;;;3.22;;
26102;SDS011;69760;49.380;8.998;2024-01-25T00:19:43;16.08;;;3.08;;
26102;SDS011;69760;49.380;8.998;2024-01-25T00:22:09;24.83;;;3.35;;
26102;SDS011;69760;49.380;8.998;2024-01-25T00:24:34;13.40;;;2.60;;
26102;SDS011;69760;49.380;8.998;2024-01-25T00:27:01;18.83;;;3.17;;
26102;SDS011;69760;49.380;8.998;2024-01-25T00:29:27;25.90;;;3.30;;
26102;SDS011;69760;49.380;8.998;2024-01-25T00:31:55;24.75;;;3.72;;
26102;SDS011;69760;49.380;8.998;2024-01-25T00:34:21;15.57;;;2.60;;
26102;SDS011;69760;49.380;8.998;2024-01-25T00:36:47;16.50;;;3.28;;
26102;SDS011;69760;49.380;8.998;2024-01-25T00:39:13;20.25;;;3.38;;
26102;SDS011;69760;49.380;8.998;2024-01-25T00:41:39;20.05;;;3.15;;
26102;SDS011;69760;49.380;8.998;2024-01-25T00:44:08;17.33;;;3.00;;
26102;SDS011;69760;49.380;8.998;2024-01-25T00:46:34;16.55;;;3.45;;
26102;SDS011;69760;49.380;8.998;2024-01-25T00:49:00;18.13;;;3.03;;
26102;SDS011;69760;49.380;8.998;2024-01-25T00:51:26;20.42;;;3.45;;
26102;SDS011;69760;49.380;8.998;2024-01-25T00:53:51;19.75;;;3.47;;
26102;SDS011;69760;49.380;8.998;2024-01-25T00:56:17;18.80;;;3.50;;
26102;SDS011;69760;49.380;8.998;2024-01-25T00:58:43;17.50;;;3.22;;
26102;SDS011;69760;49.380;8.998;2024-01-25T01:01:09;19.52;;;3.30;;
26102;SDS011;69760;49.380;8.998;2024-01-25T01:03:35;22.33;;;3.38;;
26102;SDS011;69760;49.380;8.998;2024-01-25T01:06:01;20.85;;;3.30;;
26102;SDS011;69760;49.380;8.998;2024-01-25T01:08:27;15.57;;;3.30;;
26102;SDS011;69760;49.380;8.998;2024-01-25T01:10:53;22.88;;;3.10;;
26102;SDS011;69760;49.380;8.998;2024-01-25T01:13:18;21.98;;;3.67;;
26102;SDS011;69760;49.380;8.998;2024-01-25T01:15:44;21.35;;;3.15;;
26102;SDS011;69760;49.380;8.998;2024-01-25T01:18:09;13.60;;;2.92;;
26102;SDS011;69760;49.380;8.998;2024-01-25T01:20:35;17.00;;;3.17;;
26102;SDS011;69760;49.380;8.998;2024-01-25T01:23:00;19.00;;;3.33;;
26102;SDS011;69760;49.380;8.998;2024-01-25T01:25:26;17.25;;;3.92;;
26102;SDS011;69760;49.380;8.998;2024-01-25T01:27:52;20.75;;;3.28;;
26102;SDS011;69760;49.380;8.998;2024-01-25T01:30:17;16.95;;;3.35;;
26102;SDS011;69760;49.380;8.998;2024-01-25T01:32:43;19.15;;;3.80;;
26102;SDS011;69760;49.380;8.998;2024-01-25T01:35:08;18.60;;;3.22;;
26102;SDS011;69760;49.380;8.998;2024-01-25T01:37:34;19.90;;;3.33;;
26102;SDS011;69760;49.380;8.998;2024-01-25T01:39:59;22.25;;;3.55;;
26102;SDS011;69760;49.380;8.998;2024-01-25T01:42:25;16.95;;;3.17;;
26102;SDS011;69760;49.380;8.998;2024-01-25T01:44:52;18.65;;;3.30;;
26102;SDS011;69760;49.380;8.998;2024-01-25T01:47:18;13.48;;;2.88;;
26102;SDS011;69760;49.380;8.998;2024-01-25T01:49:43;22.73;;;4.07;;
26102;SDS011;69760;49.380;8.998;2024-01-25T01:52:09;16.38;;;2.97;;
26102;SDS011;69760;49.380;8.998;2024-01-25T01:54:36;16.73;;;3.20;;
26102;SDS011;69760;49.380;8.998;2024-01-25T01:57:03;18.80;;;3.67;;
26102;SDS011;69760;49.380;8.998;2024-01-25T01:59:29;16.65;;;3.65;;
26102;SDS011;69760;49.380;8.998;2024-01-25T02:01:55;18.05;;;3.53;;
26102;SDS011;69760;49.380;8.998;2024-01-25T02:04:21;24.92;;;3.97;;
26102;SDS011;69760;49.380;8.998;2024-01-25T02:06:46;21.42;;;3.42;;
26102;SDS011;69760;49.380;8.998;2024-01-25T02:09:12;17.90;;;3.63;;
26102;SDS011;69760;49.380;8.998;2024-01-25T02:11:38;18.67;;;3.45;;
26102;SDS011;69760;49.380;8.998;2024-01-25T02:14:04;18.52;;;3.33;;
26102;SDS011;69760;49.380;8.998;2024-01-25T02:16:30;22.50;;;3.33;;
26102;SDS011;69760;49.380;8.998;2024-01-25T02:18:55;19.80;;;3.35;;
26102;SDS011;69760;49.380;8.998;2024-01-25T02:21:22;18.92;;;3.55;;
26102;SDS011;69760;49.380;8.998;2024-01-25T02:23:48;23.20;;;3.25;;
26102;SDS011;69760;49.380;8.998;2024-01-25T02:26:15;23.67;;;3.63;;
26102;SDS011;69760;49.380;8.998;2024-01-25T02:28:40;17.30;;;2.88;;
26102;SDS011;69760;49.380;8.998;2024-01-25T02:31:06;22.92;;;3.50;;
26102;SDS011;69760;49.380;8.998;2024-01-25T02:33:31;18.80;;;3.30;;
26102;SDS011;69760;49.380;8.998;2024-01-25T02:35:57;20.50;;;3.40;;
26102;SDS011;69760;49.380;8.998;2024-01-25T02:38:22;16.98;;;3.15;;
26102;SDS011;69760;49.380;8.998;2024-01-25T02:40:48;21.80;;;3.55;;
26102;SDS011;69760;49.380;8.998;2024-01-25T02:43:14;24.98;;;3.78;;
26102;SDS011;69760;49.380;8.998;2024-01-25T02:45:39;17.20;;;2.92;;
26102;SDS011;69760;49.380;8.998;2024-01-25T02:48:05;18.77;;;3.50;;
26102;SDS011;69760;49.380;8.998;2024-01-25T02:50:31;19.58;;;2.90;;
26102;SDS011;69760;49.380;8.998;2024-01-25T02:52:57;15.90;;;3.25;;
26102;SDS011;69760;49.380;8.998;2024-01-25T02:55:23;14.98;;;2.95;;
26102;SDS011;69760;49.380;8.998;2024-01-25T02:57:48;12.95;;;2.35;;
26102;SDS011;69760;49.380;8.998;2024-01-25T03:00:14;12.60;;;2.80;;
26102;SDS011;69760;49.380;8.998;2024-01-25T03:02:40;17.05;;;2.58;;
26102;SDS011;69760;49.380;8.998;2024-01-25T03:05:05;17.88;;;3.22;;
26102;SDS011;69760;49.380;8.998;2024-01-25T03:07:31;16.80;;;2.65;;
26102;SDS011;69760;49.380;8.998;2024-01-25T03:09:57;18.95;;;2.80;;
26102;SDS011;69760;49.380;8.998;2024-01-25T03:12:22;13.63;;;2.72;;
26102;SDS011;69760;49.380;8.998;2024-01-25T03:14:48;17.55;;;2.50;;
26102;SDS011;69760;49.380;8.998;2024-01-25T03:17:13;16.67;;;2.70;;
26102;SDS011;69760;49.380;8.998;2024-01-25T03:19:39;16.38;;;3.33;;
26102;SDS011;69760;49.380;8.998;2024-01-25T03:22:05;20.15;;;3.20;;
26102;SDS011;69760;49.380;8.998;2024-01-25T03:24:30;17.67;;;2.92;;
26102;SDS011;69760;49.380;8.998;2024-01-25T03:26:56;17.10;;;2.88;;
26102;SDS011;69760;49.380;8.998;2024-01-25T03:29:21;15.77;;;2.95;;
26102;SDS011;69760;49.380;8.998;2024-01-25T03:31:47;15.73;;;2.88;;
26102;SDS011;69760;49.380;8.998;2024-01-25T03:34:12;13.75;;;2.63;;
26102;SDS011;69760;49.380;8.998;2024-01-25T03:36:38;22.15;;;3.42;;
26102;SDS011;69760;49.380;8.998;2024-01-25T03:39:05;15.48;;;3.10;;
26102;SDS011;69760;49.380;8.998;2024-01-25T03:41:32;16.05;;;2.83;;
26102;SDS011;69760;49.380;8.998;2024-01-25T03:43:57;21.60;;;3.00;;
26102;SDS011;69760;49.380;8.998;2024-01-25T03:46:23;21.67;;;3.40;;
26102;SDS011;69760;49.380;8.998;2024-01-25T03:48:48;16.25;;;3.10;;
26102;SDS011;69760;49.380;8.998;2024-01-25T03:51:14;22.98;;;3.72;;
26102;SDS011;69760;49.380;8.998;2024-01-25T03:53:39;17.73;;;2.80;;
26102;SDS011;69760;49.380;8.998;2024-01-25T03:56:11;17.63;;;3.22;;
26102;SDS011;69760;49.380;8.998;2024-01-25T03:58:38;20.60;;;3.00;;
26102;SDS011;69760;49.380;8.998;2024-01-25T04:01:03;20.52;;;3.65;;
26102;SDS011;69760;49.380;8.998;2024-01-25T04:03:29;18.58;;;3.10;;
26102;SDS011;69760;49.380;8.998;2024-01-25T04:05:54;13.77;;;2.78;;
26102;SDS011;69760;49.380;8.998;2024-01-25T04:08:20;14.65;;;3.10;;
26102;SDS011;69760;49.380;8.998;2024-01-25T04:10:45;18.25;;;3.05;;
26102;SDS011;69760;49.380;8.998;2024-01-25T04:13:11;15.85;;;3.35;;
26102;SDS011;69760;49.380;8.998;2024-01-25T04:15:37;14.43;;;3.05;;
26102;SDS011;69760;49.380;8.998;2024-01-25T04:18:02;19.88;;;3.40;;
26102;SDS011;69760;49.380;8.998;2024-01-25T04:20:28;25.65;;;3.22;;
26102;SDS011;69760;49.380;8.998;2024-01-25T04:22:53;25.05;;;3.28;;
26102;SDS011;69760;49.380;8.998;2024-01-25T04:25:19;21.38;;;3.10;;
26102;SDS011;69760;49.380;8.998;2024-01-25T04:27:44;20.45;;;3.42;;
26102;SDS011;69760;49.380;8.998;2024-01-25T04:30:10;18.50;;;3.45;;
26102;SDS011;69760;49.380;8.998;2024-01-25T04:32:35;14.60;;;3.58;;
26102;SDS011;69760;49.380;8.998;2024-01-25T04:35:01;23.00;;;2.85;;
26102;SDS011;69760;49.380;8.998;2024-01-25T04:37:27;18.48;;;2.97;;
26102;SDS011;69760;49.380;8.998;2024-01-25T04:39:52;22.70;;;3.25;;
26102;SDS011;69760;49.380;8.998;2024-01-25T04:42:18;16.33;;;3.17;;
26102;SDS011;69760;49.380;8.998;2024-01-25T04:44:43;20.63;;;3.55;;
26102;SDS011;69760;49.380;8.998;2024-01-25T04:47:09;19.67;;;3.28;;
26102;SDS011;69760;49.380;8.998;2024-01-25T04:49:35;22.02;;;3.83;;
26102;SDS011;69760;49.380;8.998;2024-01-25T04:52:01;18.73;;;3.78;;
26102;SDS011;69760;49.380;8.998;2024-01-25T04:54:27;12.60;;;2.78;;
26102;SDS011;69760;49.380;8.998;2024-01-25T04:56:53;20.92;;;3.45;;
26102;SDS011;69760;49.380;8.998;2024-01-25T04:59:18;18.98;;;3.55;;
26102;SDS011;69760;49.380;8.998;2024-01-25T05:01:44;14.85;;;3.45;;
26102;SDS011;69760;49.380;8.998;2024-01-25T05:04:09;20.15;;;3.75;;
26102;SDS011;69760;49.380;8.998;2024-01-25T05:06:35;23.48;;;3.40;;
26102;SDS011;69760;49.380;8.998;2024-01-25T05:09:00;25.48;;;3.60;;
26102;SDS011;69760;49.380;8.998;2024-01-25T05:11:26;19.52;;;3.85;;
26102;SDS011;69760;49.380;8.998;2024-01-25T05:13:52;16.75;;;3.60;;
26102;SDS011;69760;49.380;8.998;2024-01-25T05:16:17;21.90;;;3.70;;
26102;SDS011;69760;49.380;8.998;2024-01-25T05:18:43;19.25;;;3.53;;
26102;SDS011;69760;49.380;8.998;2024-01-25T05:21:08;26.92;;;4.22;;
26102;SDS011;69760;49.380;8.998;2024-01-25T05:23:34;18.95;;;3.35;;
26102;SDS011;69760;49.380;8.998;2024-01-25T05:26:01;20.13;;;3.20;;
26102;SDS011;69760;49.380;8.998;2024-01-25T05:28:27;19.85;;;3.50;;
26102;SDS011;69760;49.380;8.998;2024-01-25T05:30:52;18.10;;;3.22;;
26102;SDS011;69760;49.380;8.998;2024-01-25T05:33:18;25.25;;;3.65;;
26102;SDS011;69760;49.380;8.998;2024-01-25T05:35:43;23.95;;;4.10;;
26102;SDS011;69760;49.380;8.998;2024-01-25T05:38:09;24.63;;;3.40;;
26102;SDS011;69760;49.380;8.998;2024-01-25T05:40:35;14.45;;;3.10;;
26102;SDS011;69760;49.380;8.998;2024-01-25T05:43:00;25.52;;;3.90;;
26102;SDS011;69760;49.380;8.998;2024-01-25T05:45:26;26.88;;;5.40;;
26102;SDS011;69760;49.380;8.998;2024-01-25T05:47:51;20.02;;;3.78;;
26102;SDS011;69760;49.380;8.998;2024-01-25T05:50:17;20.48;;;4.70;;
26102;SDS011;69760;49.380;8.998;2024-01-25T05:52:43;19.92;;;3.78;;
26102;SDS011;69760;49.380;8.998;2024-01-25T05:55:09;17.63;;;3.53;;
26102;SDS011;69760;49.380;8.998;2024-01-25T05:57:35;16.48;;;2.90;;
26102;SDS011;69760;49.380;8.998;2024-01-25T06:00:01;16.83;;;3.97;;
26102;SDS011;69760;49.380;8.998;2024-01-25T06:02:27;20.05;;;3.10;;
26102;SDS011;69760;49.380;8.998;2024-01-25T06:04:53;18.25;;;3.00;;
26102;SDS011;69760;49.380;8.998;2024-01-25T06:07:19;13.38;;;2.80;;
26102;SDS011;69760;49.380;8.998;2024-01-25T06:09:45;12.32;;;3.00;;
26102;SDS011;69760;49.380;8.998;2024-01-25T06:12:10;12.05;;;2.95;;
26102;SDS011;69760;49.380;8.998;2024-01-25T06:14:36;15.63;;;3.00;;
26102;SDS011;69760;49.380;8.998;2024-01-25T06:17:02;21.73;;;3.03;;
26102;SDS011;69760;49.380;8.998;2024-01-25T06:19:28;17.25;;;3.13;;
26102;SDS011;69760;49.380;8.998;2024-01-25T06:21:53;14.38;;;2.85;;
26102;SDS011;69760;49.380;8.998;2024-01-25T06:24:19;15.30;;;2.90;;
26102;SDS011;69760;49.380;8.998;2024-01-25T06:26:45;15.88;;;3.42;;
26102;SDS011;69760;49.380;8.998;2024-01-25T06:29:10;11.10;;;2.78;;
26102;SDS011;69760;49.380;8.998;2024-01-25T06:31:42;10.57;;;2.33;;
26102;SDS011;69760;49.380;8.998;2024-01-25T06:34:09;18.30;;;3.20;;
26102;SDS011;69760;49.380;8.998;2024-01-25T06:36:34;20.83;;;3.15;;
26102;SDS011;69760;49.380;8.998;2024-01-25T06:39:00;22.05;;;3.45;;
26102;SDS011;69760;49.380;8.998;2024-01-25T06:41:25;20.52;;;3.53;;
26102;SDS011;69760;49.380;8.998;2024-01-25T06:43:51;20.13;;;2.95;;
26102;SDS011;69760;49.380;8.998;2024-01-25T06:46:17;19.83;;;3.55;;
26102;SDS011;69760;49.380;8.998;2024-01-25T06:48:42;18.17;;;3.40;;
26102;SDS011;69760;49.380;8.998;2024-01-25T06:51:08;20.95;;;3.58;;
26102;SDS011;69760;49.380;8.998;2024-01-25T06:53:34;21.70;;;4.57;;
26102;SDS011;69760;49.380;8.998;2024-01-25T06:55:59;26.40;;;6.43;;
26102;SDS011;69760;49.380;8.998;2024-01-25T06:58:25;24.80;;;6.72;;
26102;SDS011;69760;49.380;8.998;2024-01-25T07:00:51;20.55;;;5.07;;
26102;SDS011;69760;49.380;8.998;2024-01-25T07:03:17;23.02;;;4.78;;
26102;SDS011;69760;49.380;8.998;2024-01-25T07:05:43;26.23;;;3.83;;
26102;SDS011;69760;49.380;8.998;2024-01-25T07:08:09;17.15;;;3.42;;
26102;SDS011;69760;49.380;8.998;2024-01-25T07:10:39;18.27;;;3.13;;
26102;SDS011;69760;49.380;8.998;2024-01-25T07:13:05;18.17;;;3.75;;
26102;SDS011;69760;49.380;8.998;2024-01-25T07:15:31;14.82;;;3.92;;
26102;SDS011;69760;49.380;8.998;2024-01-25T07:17:57;20.30;;;3.35;;
26102;SDS011;69760;49.380;8.998;2024-01-25T07:20:22;23.63;;;3.47;;
26102;SDS011;69760;49.380;8.998;2024-01-25T07:22:48;16.08;;;3.97;;
26102;SDS011;69760;49.380;8.998;2024-01-25T07:25:14;25.00;;;4.82;;
26102;SDS011;69760;49.380;8.998;2024-01-25T07:27:39;21.25;;;4.43;;
26102;SDS011;69760;49.380;8.998;2024-01-25T07:30:08;24.92;;;4.20;;
26102;SDS011;69760;49.380;8.998;2024-01-25T07:32:35;19.60;;;3.60;;
26102;SDS011;69760;49.380;8.998;2024-01-25T07:35:01;21.05;;;3.83;;
26102;SDS011;69760;49.380;8.998;2024-01-25T07:37:26;18.05;;;3.50;;
26102;SDS011;69760;49.380;8.998;2024-01-25T07:39:52;20.23;;;3.80;;
26102;SDS011;69760;49.380;8.998;2024-01-25T07:42:17;34.55;;;5.43;;
26102;SDS011;69760;49.380;8.998;2024-01-25T07:44:43;24.73;;;4.43;;
26102;SDS011;69760;49.380;8.998;2024-01-25T07:47:08;16.17;;;3.28;;
26102;SDS011;69760;49.380;8.998;2024-01-25T07:49:34;20.45;;;3.75;;
26102;SDS011;69760;49.380;8.998;2024-01-25T07:51:59;20.40;;;3.60;;
26102;SDS011;69760;49.380;8.998;2024-01-25T07:54:25;20.48;;;3.30;;
26102;SDS011;69760;49.380;8.998;2024-01-25T07:56:51;15.70;;;3.38;;
26102;SDS011;69760;49.380;8.998;2024-01-25T07:59:16;17.48;;;3.15;;
26102;SDS011;69760;49.380;8.998;2024-01-25T08:01:41;20.45;;;3.92;;
26102;SDS011;69760;49.380;8.998;2024-01-25T08:04:07;19.80;;;3.43;;
26102;SDS011;69760;49.380;8.998;2024-01-25T08:06:33;20.88;;;4.10;;
26102;SDS011;69760;49.380;8.998;2024-01-25T08:08:58;25.77;;;5.10;;
26102;SDS011;69760;49.380;8.998;2024-01-25T08:11:24;24.73;;;4.28;;
26102;SDS011;69760;49.380;8.998;2024-01-25T08:13:50;18.38;;;3.08;;
26102;SDS011;69760;49.380;8.998;2024-01-25T08:16:15;20.30;;;3.97;;
26102;SDS011;69760;49.380;8.998;2024-01-25T08:18:47;17.45;;;3.80;;
26102;SDS011;69760;49.380;8.998;2024-01-25T08:21:13;17.13;;;3.40;;
26102;SDS011;69760;49.380;8.998;2024-01-25T08:23:39;18.05;;;3.75;;
26102;SDS011;69760;49.380;8.998;2024-01-25T08:26:05;18.23;;;3.58;;
26102;SDS011;69760;49.380;8.998;2024-01-25T08:28:34;17.88;;;3.63;;
26102;SDS011;69760;49.380;8.998;2024-01-25T08:31:04;21.23;;;3.72;;
26102;SDS011;69760;49.380;8.998;2024-01-25T08:33:31;25.13;;;3.92;;
26102;SDS011;69760;49.380;8.998;2024-01-25T08:35:59;17.42;;;3.03;;
26102;SDS011;69760;49.380;8.998;2024-01-25T08:38:25;17.30;;;3.80;;
26102;SDS011;69760;49.380;8.998;2024-01-25T08:40:52;21.90;;;4.60;;
26102;SDS011;69760;49.380;8.998;2024-01-25T08:43:18;25.83;;;3.92;;
26102;SDS011;69760;49.380;8.998;2024-01-25T08:45:46;21.92;;;3.83;;
26102;SDS011;69760;49.380;8.998;2024-01-25T08:48:12;23.88;;;3.55;;
26102;SDS011;69760;49.380;8.998;2024-01-25T08:50:38;25.15;;;3.20;;
26102;SDS011;69760;49.380;8.998;2024-01-25T08:53:04;28.05;;;3.97;;
26102;SDS011;69760;49.380;8.998;2024-01-25T08:55:30;22.63;;;3.38;;
26102;SDS011;69760;49.380;8.998;2024-01-25T08:58:13;21.13;;;3.90;;
26102;SDS011;69760;49.380;8.998;2024-01-25T09:00:39;22.38;;;3.75;;
26102;SDS011;69760;49.380;8.998;2024-01-25T09:03:05;25.02;;;3.83;;
26102;SDS011;69760;49.380;8.998;2024-01-25T09:05:31;30.20;;;3.60;;
26102;SDS011;69760;49.380;8.998;2024-01-25T09:07:59;20.70;;;3.60;;
26102;SDS011;69760;49.380;8.998;2024-01-25T09:10:25;20.80;;;4.10;;
26102;SDS011;69760;49.380;8.998;2024-01-25T09:12:50;16.13;;;3.88;;
26102;SDS011;69760;49.380;8.998;2024-01-25T09:15:16;18.55;;;3.70;;
26102;SDS011;69760;49.380;8.998;2024-01-25T09:17:41;19.00;;;3.65;;
26102;SDS011;69760;49.380;8.998;2024-01-25T09:20:08;24.70;;;3.35;;
26102;SDS011;69760;49.380;8.998;2024-01-25T09:22:33;16.35;;;3.53;;
26102;SDS011;69760;49.380;8.998;2024-01-25T09:24:59;19.23;;;3.67;;
26102;SDS011;69760;49.380;8.998;2024-01-25T09:27:25;22.27;;;3.63;;
26102;SDS011;69760;49.380;8.998;2024-01-25T09:29:50;21.20;;;3.75;;
26102;SDS011;69760;49.380;8.998;2024-01-25T09:32:15;20.00;;;3.65;;
26102;SDS011;69760;49.380;8.998;2024-01-25T09:34:41;22.65;;;4.32;;
26102;SDS011;69760;49.380;8.998;2024-01-25T09:37:07;21.90;;;3.67;;
26102;SDS011;69760;49.380;8.998;2024-01-25T09:39:33;25.98;;;4.45;;
26102;SDS011;69760;49.380;8.998;2024-01-25T09:42:00;19.75;;;3.33;;
26102;SDS011;69760;49.380;8.998;2024-01-25T09:44:27;25.58;;;4.22;;
26102;SDS011;69760;49.380;8.998;2024-01-25T09:46:53;23.75;;;5.57;;
26102;SDS011;69760;49.380;8.998;2024-01-25T09:49:19;27.08;;;4.07;;
26102;SDS011;69760;49.380;8.998;2024-01-25T09:51:45;14.25;;;3.33;;
26102;SDS011;69760;49.380;8.998;2024-01-25T09:54:11;18.83;;;3.20;;
26102;SDS011;69760;49.380;8.998;2024-01-25T09:56:36;20.33;;;3.67;;
26102;SDS011;69760;49.380;8.998;2024-01-25T09:59:06;22.88;;;3.78;;
26102;SDS011;69760;49.380;8.998;2024-01-25T10:01:33;23.92;;;4.22;;
26102;SDS011;69760;49.380;8.998;2024-01-25T10:03:59;18.17;;;3.85;;
26102;SDS011;69760;49.380;8.998;2024-01-25T10:06:25;13.73;;;3.00;;
26102;SDS011;69760;49.380;8.998;2024-01-25T10:08:50;21.95;;;3.60;;
26102;SDS011;69760;49.380;8.998;2024-01-25T10:11:17;20.65;;;3.40;;
26102;SDS011;69760;49.380;8.998;2024-01-25T10:13:43;17.08;;;3.35;;
26102;SDS011;69760;49.380;8.998;2024-01-25T10:16:14;29.48;;;4.35;;
26102;SDS011;69760;49.380;8.998;2024-01-25T10:18:41;15.95;;;3.60;;
26102;SDS011;69760;49.380;8.998;2024-01-25T10:21:09;16.63;;;3.13;;
26102;SDS011;69760;49.380;8.998;2024-01-25T10:23:39;15.18;;;3.15;;
26102;SDS011;69760;49.380;8.998;2024-01-25T10:26:05;18.48;;;3.65;;
26102;SDS011;69760;49.380;8.998;2024-01-25T10:28:30;20.02;;;3.20;;
26102;SDS011;69760;49.380;8.998;2024-01-25T10:30:59;24.02;;;3.88;;
26102;SDS011;69760;49.380;8.998;2024-01-25T10:33:26;30.65;;;4.97;;
26102;SDS011;69760;49.380;8.998;2024-01-25T10:36:04;19.40;;;3.70;;
26102;SDS011;69760;49.380;8.998;2024-01-25T10:39:37;19.73;;;3.38;;
26102;SDS011;69760;49.380;8.998;2024-01-25T10:42:03;16.35;;;3.45;;
26102;SDS011;69760;49.380;8.998;2024-01-25T10:44:30;17.75;;;3.05;;
26102;SDS011;69760;49.380;8.998;2024-01-25T10:46:55;21.00;;;3.75;;
26102;SDS011;69760;49.380;8.998;2024-01-25T10:49:22;19.48;;;4.35;;
26102;SDS011;69760;49.380;8.998;2024-01-25T10:51:48;23.73;;;3.65;;
26102;SDS011;69760;49.380;8.998;2024-01-25T10:54:14;19.77;;;3.42;;
26102;SDS011;69760;49.380;8.998;2024-01-25T10:56:41;21.50;;;3.42;;
26102;SDS011;69760;49.380;8.998;2024-01-25T10:59:07;18.33;;;3.38;;
26102;SDS011;69760;49.380;8.998;2024-01-25T11:01:35;17.88;;;3.70;;
26102;SDS011;69760;49.380;8.998;2024-01-25T11:04:01;18.10;;;4.03;;
26102;SDS011;69760;49.380;8.998;2024-01-25T11:06:27;22.45;;;3.80;;
26102;SDS011;69760;49.380;8.998;2024-01-25T11:09:03;14.90;;;3.50;;
26102;SDS011;69760;49.380;8.998;2024-01-25T11:11:30;15.13;;;3.58;;
26102;SDS011;69760;49.380;8.998;2024-01-25T11:13:57;17.08;;;3.53;;
26102;SDS011;69760;49.380;8.998;2024-01-25T11:16:28;18.92;;;4.07;;
26102;SDS011;69760;49.380;8.998;2024-01-25T11:18:56;19.00;;;3.95;;
26102;SDS011;69760;49.380;8.998;2024-01-25T11:21:48;17.70;;;3.88;;
26102;SDS011;69760;49.380;8.998;2024-01-25T11:24:22;19.13;;;3.60;;
26102;SDS011;69760;49.380;8.998;2024-01-25T11:26:51;14.60;;;4.45;;
26102;SDS011;69760;49.380;8.998;2024-01-25T11:29:19;23.08;;;4.28;;
26102;SDS011;69760;49.380;8.998;2024-01-25T11:31:47;14.07;;;2.90;;
26102;SDS011;69760;49.380;8.998;2024-01-25T11:34:14;22.55;;;3.72;;
26102;SDS011;69760;49.380;8.998;2024-01-25T11:36:41;13.50;;;3.00;;
26102;SDS011;69760;49.380;8.998;2024-01-25T11:39:11;14.52;;;2.83;;
26102;SDS011;69760;49.380;8.998;2024-01-25T11:41:37;23.33;;;3.53;;
26102;SDS011;69760;49.380;8.998;2024-01-25T11:44:03;23.92;;;3.90;;
26102;SDS011;69760;49.380;8.998;2024-01-25T11:46:29;16.90;;;3.17;;
26102;SDS011;69760;49.380;8.998;2024-01-25T11:48:55;19.63;;;3.13;;
26102;SDS011;69760;49.380;8.998;2024-01-25T11:51:22;19.33;;;3.28;;
26102;SDS011;69760;49.380;8.998;2024-01-25T11:53:48;25.17;;;3.75;;
26102;SDS011;69760;49.380;8.998;2024-01-25T11:56:15;20.23;;;4.45;;
26102;SDS011;69760;49.380;8.998;2024-01-25T11:58:45;20.73;;;3.40;;
26102;SDS011;69760;49.380;8.998;2024-01-25T12:01:11;12.27;;;3.25;;
26102;SDS011;69760;49.380;8.998;2024-01-25T12:03:38;15.68;;;3.03;;
26102;SDS011;69760;49.380;8.998;2024-01-25T12:06:05;16.77;;;3.20;;
26102;SDS011;69760;49.380;8.998;2024-01-25T12:08:33;15.75;;;3.22;;
26102;SDS011;69760;49.380;8.998;2024-01-25T20:38:53;32.85;;;15.05;;
26102;SDS011;69760;49.380;8.998;2024-01-25T20:41:18;28.23;;;13.63;;
26102;SDS011;69760;49.380;8.998;2024-01-25T20:43:45;27.42;;;12.32;;
26102;SDS011;69760;49.380;8.998;2024-01-25T20:46:11;25.92;;;11.82;;
26102;SDS011;69760;49.380;8.998;2024-01-25T20:48:38;36.50;;;15.90;;
26102;SDS011;69760;49.380;8.998;2024-01-25T20:51:04;34.05;;;15.27;;
26102;SDS011;69760;49.380;8.998;2024-01-25T20:53:30;27.17;;;13.75;;
26102;SDS011;69760;49.380;8.998;2024-01-25T20:55:55;29.02;;;13.88;;
26102;SDS011;69760;49.380;8.998;2024-01-25T20:58:20;28.60;;;14.75;;
26102;SDS011;69760;49.380;8.998;2024-01-25T21:00:46;26.00;;;13.35;;
26102;SDS011;69760;49.380;8.998;2024-01-25T21:03:12;31.95;;;15.70;;
26102;SDS011;69760;49.380;8.998;2024-01-25T21:05:38;32.03;;;15.70;;
26102;SDS011;69760;49.380;8.998;2024-01-25T21:08:03;40.30;;;21.40;;
26102;SDS011;69760;49.380;8.998;2024-01-25T21:10:29;37.33;;;19.88;;
26102;SDS011;69760;49.380;8.998;2024-01-25T21:12:55;34.40;;;17.92;;
26102;SDS011;69760;49.380;8.998;2024-01-25T21:15:21;32.83;;;16.83;;
26102;SDS011;69760;49.380;8.998;2024-01-25T21:17:47;34.53;;;16.42;;
26102;SDS011;69760;49.380;8.998;2024-01-25T21:20:12;29.48;;;15.93;;
26102;SDS011;69760;49.380;8.998;2024-01-25T21:22:38;29.42;;;15.30;;
26102;SDS011;69760;49.380;8.998;2024-01-25T21:25:03;26.85;;;14.43;;
26102;SDS011;69760;49.380;8.998;2024-01-25T21:27:29;20.80;;;12.07;;
26102;SDS011;69760;49.380;8.998;2024-01-25T21:29:55;21.60;;;12.05;;
26102;SDS011;69760;49.380;8.998;2024-01-25T21:32:23;18.17;;;10.18;;
26102;SDS011;69760;49.380;8.998;2024-01-25T21:34:49;18.48;;;10.40;;
26102;SDS011;69760;49.380;8.998;2024-01-25T21:37:15;18.73;;;9.80;;
26102;SDS011;69760;49.380;8.998;2024-01-25T21:39:40;18.25;;;10.40;;
26102;SDS011;69760;49.380;8.998;2024-01-25T21:42:06;18.88;;;10.98;;
26102;SDS011;69760;49.380;8.998;2024-01-25T21:44:31;18.38;;;10.35;;
26102;SDS011;69760;49.380;8.998;2024-01-25T21:46:57;14.98;;;9.32;;
26102;SDS011;69760;49.380;8.998;2024-01-25T21:49:22;17.63;;;10.23;;
26102;SDS011;69760;49.380;8.998;2024-01-25T21:51:48;15.30;;;8.75;;
26102;SDS011;69760;49.380;8.998;2024-01-25T21:54:13;16.30;;;9.30;;
26102;SDS011;69760;49.380;8.998;2024-01-25T21:56:43;17.05;;;9.57;;
26102;SDS011;69760;49.380;8.998;2024-01-25T21:59:09;16.77;;;9.18;;
26102;SDS011;69760;49.380;8.998;2024-01-25T22:01:34;14.90;;;8.60;;
26102;SDS011;69760;49.380;8.998;2024-01-25T22:04:01;16.83;;;9.45;;
26102;SDS011;69760;49.380;8.998;2024-01-25T22:06:27;17.02;;;9.98;;
26102;SDS011;69760;49.380;8.998;2024-01-25T22:08:53;19.35;;;9.75;;
26102;SDS011;69760;49.380;8.998;2024-01-25T22:11:19;16.60;;;9.00;;
26102;SDS011;69760;49.380;8.998;2024-01-25T22:13:44;16.25;;;8.82;;
26102;SDS011;69760;49.380;8.998;2024-01-25T22:16:10;14.63;;;8.18;;
26102;SDS011;69760;49.380;8.998;2024-01-25T22:18:35;14.73;;;8.38;;
26102;SDS011;69760;49.380;8.998;2024-01-25T22:21:01;14.93;;;8.52;;
26102;SDS011;69760;49.380;8.998;2024-01-25T22:23:26;15.05;;;8.57;;
26102;SDS011;69760;49.380;8.998;2024-01-25T22:25:53;15.35;;;8.57;;
26102;SDS011;69760;49.380;8.998;2024-01-25T22:28:19;17.80;;;9.23;;
26102;SDS011;69760;49.380;8.998;2024-01-25T22:30:45;20.58;;;10.27;;
26102;SDS011;69760;49.380;8.998;2024-01-25T22:33:10;23.10;;;12.65;;
26102;SDS011;69760;49.380;8.998;2024-01-25T22:35:38;20.80;;;11.18;;
26102;SDS011;69760;49.380;8.998;2024-01-25T22:38:03;23.35;;;12.38;;
26102;SDS011;69760;49.380;8.998;2024-01-25T22:40:30;21.35;;;11.63;;
26102;SDS011;69760;49.380;8.998;2024-01-25T22:42:56;24.05;;;12.10;;
26102;SDS011;69760;49.380;8.998;2024-01-25T22:45:22;21.33;;;12.45;;
26102;SDS011;69760;49.380;8.998;2024-01-25T22:47:48;19.02;;;10.68;;
26102;SDS011;69760;49.380;8.998;2024-01-25T22:50:13;21.77;;;11.52;;
26102;SDS011;69760;49.380;8.998;2024-01-25T22:52:41;20.10;;;11.77;;
26102;SDS011;69760;49.380;8.998;2024-01-25T22:55:07;19.27;;;10.48;;